Nickerson, NE (68044)

07:38 PM CST del 06 Marzo 2015 (GMT -0600)
Fremont Municipal | Change Station
CLOSE
Current Station
Aeroporto
Location: Fremont,
Altitudine: 1204 ft
Stazioni meteo nelle vicinanze

Alt. 1204 ft 41.45 °N, 96.52 °W | Updated 23 minutes ago

Parzialmente nuvoloso
Parzialmente nuvoloso
47 °F
Sembra 47 °F
N
4
Vento Variabile Vento da Ovest

Oggi
Massima -- | Minima -- °F
--% Possibilità di precip.
Ieri
Massima -- | Minima -- °F
Precip. -- in
6:52 AM 6:22 PM
Luna piena, 98% visible
Pressione 30.11 in
Visibilità 10.0 miglia
Nuvole Nubi sparse 12000 ft
Punto di rugiada 19 °F
Umidità 32%
Piovosità 0.00 in
Spessore del manto nevoso Non disponibile.
Raggi UV 0 fuori da 12
Polline 3.60 fuori da 12
Qualità dell'aria Non disponibile.
Flu Activity Non disponibile.
METAR KFET 070115Z AUTO 26003KT 10SM SCT120 09/M07 A3011 RMK AO2 T00851074

More Conditions Fewer Conditions

Pressione 30.11 in
Visibilità 10.0 miglia
Nuvole Nubi sparse 12000 ft
Punto di rugiada 19 °F
Umidità 32%
Piovosità 0.00 in
Spessore del manto nevoso Non disponibile.
Raggi UV 0 fuori da 12
Polline 3.60 fuori da 12
Qualità dell'aria Non disponibile.
Flu Activity Non disponibile.
METAR KFET 070115Z AUTO 26003KT 10SM SCT120 09/M07 A3011 RMK AO2 T00851074

More Conditions Fewer Conditions

10-Day Weather Forecast

Almanac

Astronomia

Mar. 06, 2015 Alba Tramonto
Ora attuale
Crepuscolo civile
Crepuscolo nautico
Crepuscolo astronomico
Luna
Estensione della luce visibile
Lunghezza del giorno
Tomorrow will be .
, % of the Moon is Illuminated

Gli estremi di oggi

State Highs State Lows

Community

WunderPhotos

Upload Photos

1,803,491 foto caricate!

WunderBlogs® & News

Nearby

Qualità dell'aria

  Qualità dell'aria Indice AQ Inquinante
Not available.

Profondità neve

Stazione Profondità Altitudine

Attività sismica

Città  Distanza Mag. Data & Ora
Minimo Magnitudo Mostrato è 2.5.

Temperature delle acque costiere

Località Temperatura

Stazioni meteo nelle vicinanze